sensor_id;sensor_type;location;lat;lon;timestamp;temperature;humidity
70807;DHT22;58882;52.170;5.386;2024-01-06T00:00:13;15.50;55.50
70807;DHT22;58882;52.170;5.386;2024-01-06T00:02:40;15.50;55.50
70807;DHT22;58882;52.170;5.386;2024-01-06T00:05:07;15.50;55.60
70807;DHT22;58882;52.170;5.386;2024-01-06T00:07:34;15.50;55.60
70807;DHT22;58882;52.170;5.386;2024-01-06T00:10:01;15.50;55.60
70807;DHT22;58882;52.170;5.386;2024-01-06T00:12:27;15.50;55.60
70807;DHT22;58882;52.170;5.386;2024-01-06T00:14:54;15.50;55.50
70807;DHT22;58882;52.170;5.386;2024-01-06T00:17:21;15.50;55.50
70807;DHT22;58882;52.170;5.386;2024-01-06T00:19:48;15.50;55.50
70807;DHT22;58882;52.170;5.386;2024-01-06T00:22:18;15.50;55.50
70807;DHT22;58882;52.170;5.386;2024-01-06T00:24:46;15.40;55.30
70807;DHT22;58882;52.170;5.386;2024-01-06T00:27:13;15.40;55.10
70807;DHT22;58882;52.170;5.386;2024-01-06T00:29:40;15.40;55.00
70807;DHT22;58882;52.170;5.386;2024-01-06T00:32:07;15.40;55.00
70807;DHT22;58882;52.170;5.386;2024-01-06T00:34:34;15.40;55.10
70807;DHT22;58882;52.170;5.386;2024-01-06T00:37:01;15.40;55.00
70807;DHT22;58882;52.170;5.386;2024-01-06T00:39:28;15.40;55.00
70807;DHT22;58882;52.170;5.386;2024-01-06T00:41:54;15.30;55.10
70807;DHT22;58882;52.170;5.386;2024-01-06T00:44:22;15.30;55.40
70807;DHT22;58882;52.170;5.386;2024-01-06T00:46:48;15.30;55.30
70807;DHT22;58882;52.170;5.386;2024-01-06T00:49:15;15.30;55.40
70807;DHT22;58882;52.170;5.386;2024-01-06T00:51:42;15.40;55.50
70807;DHT22;58882;52.170;5.386;2024-01-06T00:54:09;15.30;55.40
70807;DHT22;58882;52.170;5.386;2024-01-06T00:56:36;15.40;55.50
70807;DHT22;58882;52.170;5.386;2024-01-06T00:59:03;15.30;55.50
70807;DHT22;58882;52.170;5.386;2024-01-06T01:01:30;15.30;55.60
70807;DHT22;58882;52.170;5.386;2024-01-06T01:03:56;15.30;55.80
70807;DHT22;58882;52.170;5.386;2024-01-06T01:06:23;15.30;55.80
70807;DHT22;58882;52.170;5.386;2024-01-06T01:08:50;15.30;55.60
70807;DHT22;58882;52.170;5.386;2024-01-06T01:11:18;15.30;55.40
70807;DHT22;58882;52.170;5.386;2024-01-06T01:13:45;15.30;55.40
70807;DHT22;58882;52.170;5.386;2024-01-06T01:16:12;15.30;55.40
70807;DHT22;58882;52.170;5.386;2024-01-06T01:18:39;15.30;55.40
70807;DHT22;58882;52.170;5.386;2024-01-06T01:21:06;15.20;55.40
70807;DHT22;58882;52.170;5.386;2024-01-06T01:23:33;15.20;55.30
70807;DHT22;58882;52.170;5.386;2024-01-06T01:25:59;15.30;55.50
70807;DHT22;58882;52.170;5.386;2024-01-06T01:28:27;15.20;55.70
70807;DHT22;58882;52.170;5.386;2024-01-06T01:30:54;15.20;55.70
70807;DHT22;58882;52.170;5.386;2024-01-06T01:33:21;15.20;55.80
70807;DHT22;58882;52.170;5.386;2024-01-06T01:35:48;15.20;56.90
70807;DHT22;58882;52.170;5.386;2024-01-06T01:38:14;15.20;55.70
70807;DHT22;58882;52.170;5.386;2024-01-06T01:40:41;15.20;55.70
70807;DHT22;58882;52.170;5.386;2024-01-06T01:43:21;15.20;55.70
70807;DHT22;58882;52.170;5.386;2024-01-06T01:45:50;15.20;55.90
70807;DHT22;58882;52.170;5.386;2024-01-06T01:48:20;15.20;55.90
70807;DHT22;58882;52.170;5.386;2024-01-06T01:50:47;15.20;55.90
70807;DHT22;58882;52.170;5.386;2024-01-06T01:53:14;15.20;55.90
70807;DHT22;58882;52.170;5.386;2024-01-06T01:55:42;15.20;55.80
70807;DHT22;58882;52.170;5.386;2024-01-06T01:58:10;15.20;55.70
70807;DHT22;58882;52.170;5.386;2024-01-06T02:00:38;15.20;55.80
70807;DHT22;58882;52.170;5.386;2024-01-06T02:03:05;15.10;55.80
70807;DHT22;58882;52.170;5.386;2024-01-06T02:05:34;15.10;55.80
70807;DHT22;58882;52.170;5.386;2024-01-06T02:08:01;15.20;55.90
70807;DHT22;58882;52.170;5.386;2024-01-06T02:10:28;15.20;56.80
70807;DHT22;58882;52.170;5.386;2024-01-06T02:12:55;15.20;55.90
70807;DHT22;58882;52.170;5.386;2024-01-06T02:15:22;15.10;55.90
70807;DHT22;58882;52.170;5.386;2024-01-06T02:17:50;15.10;55.90
70807;DHT22;58882;52.170;5.386;2024-01-06T02:20:17;15.10;55.80
70807;DHT22;58882;52.170;5.386;2024-01-06T02:22:46;15.10;55.60
70807;DHT22;58882;52.170;5.386;2024-01-06T02:25:13;15.10;55.60
70807;DHT22;58882;52.170;5.386;2024-01-06T02:27:40;15.10;55.60
70807;DHT22;58882;52.170;5.386;2024-01-06T02:30:07;15.10;55.60
70807;DHT22;58882;52.170;5.386;2024-01-06T02:32:34;15.10;55.40
70807;DHT22;58882;52.170;5.386;2024-01-06T02:35:02;15.10;55.40
70807;DHT22;58882;52.170;5.386;2024-01-06T02:37:29;15.00;55.20
70807;DHT22;58882;52.170;5.386;2024-01-06T02:39:56;15.10;55.10
70807;DHT22;58882;52.170;5.386;2024-01-06T02:42:23;15.10;55.20
70807;DHT22;58882;52.170;5.386;2024-01-06T02:44:51;15.00;55.20
70807;DHT22;58882;52.170;5.386;2024-01-06T02:47:18;15.00;55.20
70807;DHT22;58882;52.170;5.386;2024-01-06T02:49:45;15.00;56.30
70807;DHT22;58882;52.170;5.386;2024-01-06T02:52:12;15.00;55.50
70807;DHT22;58882;52.170;5.386;2024-01-06T02:54:39;15.00;55.60
70807;DHT22;58882;52.170;5.386;2024-01-06T02:57:05;15.00;55.90
70807;DHT22;58882;52.170;5.386;2024-01-06T02:59:32;15.00;55.80
70807;DHT22;58882;52.170;5.386;2024-01-06T03:02:01;15.00;56.00
70807;DHT22;58882;52.170;5.386;2024-01-06T03:04:28;15.00;56.10
70807;DHT22;58882;52.170;5.386;2024-01-06T03:06:55;15.00;56.10
70807;DHT22;58882;52.170;5.386;2024-01-06T03:09:22;15.00;56.10
70807;DHT22;58882;52.170;5.386;2024-01-06T03:11:49;15.00;56.10
70807;DHT22;58882;52.170;5.386;2024-01-06T03:14:16;15.00;56.10
70807;DHT22;58882;52.170;5.386;2024-01-06T03:16:43;15.00;56.10
70807;DHT22;58882;52.170;5.386;2024-01-06T03:19:09;15.00;56.30
70807;DHT22;58882;52.170;5.386;2024-01-06T03:21:37;15.00;56.30
70807;DHT22;58882;52.170;5.386;2024-01-06T03:24:04;15.00;56.20
70807;DHT22;58882;52.170;5.386;2024-01-06T03:26:31;15.00;56.20
70807;DHT22;58882;52.170;5.386;2024-01-06T03:28:58;15.00;56.30
70807;DHT22;58882;52.170;5.386;2024-01-06T03:31:25;15.00;56.30
70807;DHT22;58882;52.170;5.386;2024-01-06T03:33:52;15.00;56.40
70807;DHT22;58882;52.170;5.386;2024-01-06T03:36:21;15.00;56.50
70807;DHT22;58882;52.170;5.386;2024-01-06T03:38:48;15.00;56.50
70807;DHT22;58882;52.170;5.386;2024-01-06T03:41:15;15.00;56.50
70807;DHT22;58882;52.170;5.386;2024-01-06T03:43:42;15.00;56.20
70807;DHT22;58882;52.170;5.386;2024-01-06T03:46:09;15.00;56.00
70807;DHT22;58882;52.170;5.386;2024-01-06T03:48:35;15.00;56.20
70807;DHT22;58882;52.170;5.386;2024-01-06T03:51:03;15.00;56.10
70807;DHT22;58882;52.170;5.386;2024-01-06T03:53:30;15.00;56.00
70807;DHT22;58882;52.170;5.386;2024-01-06T03:55:57;14.90;56.00
70807;DHT22;58882;52.170;5.386;2024-01-06T03:58:23;14.90;56.00
70807;DHT22;58882;52.170;5.386;2024-01-06T04:00:50;14.90;56.10
70807;DHT22;58882;52.170;5.386;2024-01-06T04:03:17;14.90;56.10
70807;DHT22;58882;52.170;5.386;2024-01-06T04:05:44;14.90;55.90
70807;DHT22;58882;52.170;5.386;2024-01-06T04:08:11;14.90;55.80
70807;DHT22;58882;52.170;5.386;2024-01-06T04:10:38;14.90;55.90
70807;DHT22;58882;52.170;5.386;2024-01-06T04:13:05;14.90;55.80
70807;DHT22;58882;52.170;5.386;2024-01-06T04:15:32;14.90;56.00
70807;DHT22;58882;52.170;5.386;2024-01-06T04:18:02;14.90;56.20
70807;DHT22;58882;52.170;5.386;2024-01-06T04:20:31;14.90;56.30
70807;DHT22;58882;52.170;5.386;2024-01-06T04:22:58;14.90;56.20
70807;DHT22;58882;52.170;5.386;2024-01-06T04:25:25;14.90;56.20
70807;DHT22;58882;52.170;5.386;2024-01-06T04:27:51;14.90;56.10
70807;DHT22;58882;52.170;5.386;2024-01-06T04:30:19;14.90;56.10
70807;DHT22;58882;52.170;5.386;2024-01-06T04:32:47;14.90;56.10
70807;DHT22;58882;52.170;5.386;2024-01-06T04:35:20;14.90;56.20
70807;DHT22;58882;52.170;5.386;2024-01-06T04:37:47;14.90;55.90
70807;DHT22;58882;52.170;5.386;2024-01-06T04:40:14;14.90;56.80
70807;DHT22;58882;52.170;5.386;2024-01-06T04:42:41;14.90;56.00
70807;DHT22;58882;52.170;5.386;2024-01-06T04:45:08;14.90;56.10
70807;DHT22;58882;52.170;5.386;2024-01-06T04:47:35;14.90;56.20
70807;DHT22;58882;52.170;5.386;2024-01-06T04:50:02;14.90;56.30
70807;DHT22;58882;52.170;5.386;2024-01-06T04:52:30;14.90;56.30
70807;DHT22;58882;52.170;5.386;2024-01-06T04:54:57;14.90;56.10
70807;DHT22;58882;52.170;5.386;2024-01-06T04:57:24;14.90;56.10
70807;DHT22;58882;52.170;5.386;2024-01-06T04:59:51;14.90;55.80
70807;DHT22;58882;52.170;5.386;2024-01-06T05:02:18;14.90;56.00
70807;DHT22;58882;52.170;5.386;2024-01-06T05:04:45;14.80;56.10
70807;DHT22;58882;52.170;5.386;2024-01-06T05:07:12;14.80;56.00
70807;DHT22;58882;52.170;5.386;2024-01-06T05:09:38;14.80;56.90
70807;DHT22;58882;52.170;5.386;2024-01-06T05:12:06;14.80;56.10
70807;DHT22;58882;52.170;5.386;2024-01-06T05:14:32;14.80;56.20
70807;DHT22;58882;52.170;5.386;2024-01-06T05:16:59;14.80;57.30
70807;DHT22;58882;52.170;5.386;2024-01-06T05:19:26;14.80;56.20
70807;DHT22;58882;52.170;5.386;2024-01-06T05:21:53;14.80;56.30
70807;DHT22;58882;52.170;5.386;2024-01-06T05:24:20;14.80;56.40
70807;DHT22;58882;52.170;5.386;2024-01-06T05:26:47;14.80;56.30
70807;DHT22;58882;52.170;5.386;2024-01-06T05:29:14;14.80;56.30
70807;DHT22;58882;52.170;5.386;2024-01-06T05:31:41;14.80;56.30
70807;DHT22;58882;52.170;5.386;2024-01-06T05:34:08;14.80;56.30
70807;DHT22;58882;52.170;5.386;2024-01-06T05:36:35;14.80;56.30
70807;DHT22;58882;52.170;5.386;2024-01-06T05:39:01;14.80;56.20
70807;DHT22;58882;52.170;5.386;2024-01-06T05:41:28;14.80;56.20
70807;DHT22;58882;52.170;5.386;2024-01-06T05:43:56;14.80;56.10
70807;DHT22;58882;52.170;5.386;2024-01-06T05:46:24;14.80;56.10
70807;DHT22;58882;52.170;5.386;2024-01-06T05:48:51;14.80;56.30
70807;DHT22;58882;52.170;5.386;2024-01-06T05:51:19;14.80;56.10
70807;DHT22;58882;52.170;5.386;2024-01-06T05:53:45;14.80;56.00
70807;DHT22;58882;52.170;5.386;2024-01-06T05:56:22;14.80;56.10
70807;DHT22;58882;52.170;5.386;2024-01-06T05:58:50;14.80;56.30
70807;DHT22;58882;52.170;5.386;2024-01-06T06:01:17;14.80;56.30
70807;DHT22;58882;52.170;5.386;2024-01-06T06:03:48;14.80;56.30
70807;DHT22;58882;52.170;5.386;2024-01-06T06:06:17;14.80;56.40
70807;DHT22;58882;52.170;5.386;2024-01-06T06:08:44;14.80;56.30
70807;DHT22;58882;52.170;5.386;2024-01-06T06:11:11;14.80;56.30
70807;DHT22;58882;52.170;5.386;2024-01-06T06:13:40;14.70;56.30
70807;DHT22;58882;52.170;5.386;2024-01-06T06:16:09;14.70;56.40
70807;DHT22;58882;52.170;5.386;2024-01-06T06:18:36;14.80;56.40
70807;DHT22;58882;52.170;5.386;2024-01-06T06:21:03;14.70;56.20
70807;DHT22;58882;52.170;5.386;2024-01-06T06:23:31;14.70;56.10
70807;DHT22;58882;52.170;5.386;2024-01-06T06:25:58;14.80;56.20
70807;DHT22;58882;52.170;5.386;2024-01-06T06:28:26;14.70;56.20
70807;DHT22;58882;52.170;5.386;2024-01-06T06:30:53;14.70;56.60
70807;DHT22;58882;52.170;5.386;2024-01-06T06:33:20;14.70;56.00
70807;DHT22;58882;52.170;5.386;2024-01-06T06:35:47;14.70;55.90
70807;DHT22;58882;52.170;5.386;2024-01-06T06:38:14;14.70;55.80
70807;DHT22;58882;52.170;5.386;2024-01-06T06:40:41;14.70;55.80
70807;DHT22;58882;52.170;5.386;2024-01-06T06:43:08;14.80;55.70
70807;DHT22;58882;52.170;5.386;2024-01-06T06:45:35;14.80;55.80
70807;DHT22;58882;52.170;5.386;2024-01-06T06:48:02;14.70;55.70
70807;DHT22;58882;52.170;5.386;2024-01-06T06:50:29;14.70;56.70
70807;DHT22;58882;52.170;5.386;2024-01-06T06:52:56;14.70;55.60
70807;DHT22;58882;52.170;5.386;2024-01-06T06:55:23;14.80;55.50
70807;DHT22;58882;52.170;5.386;2024-01-06T06:57:50;14.70;56.30
70807;DHT22;58882;52.170;5.386;2024-01-06T07:00:17;14.70;55.40
70807;DHT22;58882;52.170;5.386;2024-01-06T07:02:44;14.70;56.30
70807;DHT22;58882;52.170;5.386;2024-01-06T07:05:11;14.70;55.20
70807;DHT22;58882;52.170;5.386;2024-01-06T07:07:38;14.70;55.30
70807;DHT22;58882;52.170;5.386;2024-01-06T07:10:06;14.70;55.20
70807;DHT22;58882;52.170;5.386;2024-01-06T07:12:33;14.70;55.30
70807;DHT22;58882;52.170;5.386;2024-01-06T07:15:00;14.70;55.40
70807;DHT22;58882;52.170;5.386;2024-01-06T07:17:28;14.70;55.10
70807;DHT22;58882;52.170;5.386;2024-01-06T07:19:55;14.70;55.00
70807;DHT22;58882;52.170;5.386;2024-01-06T07:22:22;14.70;54.90
70807;DHT22;58882;52.170;5.386;2024-01-06T07:24:49;14.70;54.60
70807;DHT22;58882;52.170;5.386;2024-01-06T07:27:16;14.70;54.50
70807;DHT22;58882;52.170;5.386;2024-01-06T07:29:43;14.70;54.40
70807;DHT22;58882;52.170;5.386;2024-01-06T07:32:10;14.70;54.20
70807;DHT22;58882;52.170;5.386;2024-01-06T07:34:36;14.70;55.10
70807;DHT22;58882;52.170;5.386;2024-01-06T07:37:03;14.70;54.10
70807;DHT22;58882;52.170;5.386;2024-01-06T07:39:30;14.70;54.30
70807;DHT22;58882;52.170;5.386;2024-01-06T07:41:57;14.70;55.20
70807;DHT22;58882;52.170;5.386;2024-01-06T07:44:24;14.70;54.00
70807;DHT22;58882;52.170;5.386;2024-01-06T07:46:52;14.70;54.00
70807;DHT22;58882;52.170;5.386;2024-01-06T07:49:19;14.70;53.80
70807;DHT22;58882;52.170;5.386;2024-01-06T07:51:47;14.70;53.70
70807;DHT22;58882;52.170;5.386;2024-01-06T07:54:13;14.70;53.40
70807;DHT22;58882;52.170;5.386;2024-01-06T07:56:40;14.70;53.30
70807;DHT22;58882;52.170;5.386;2024-01-06T07:59:08;14.70;53.10
70807;DHT22;58882;52.170;5.386;2024-01-06T08:01:34;14.70;53.10
70807;DHT22;58882;52.170;5.386;2024-01-06T08:04:01;14.70;53.00
70807;DHT22;58882;52.170;5.386;2024-01-06T08:06:28;14.70;52.90
70807;DHT22;58882;52.170;5.386;2024-01-06T08:08:55;14.80;52.70
70807;DHT22;58882;52.170;5.386;2024-01-06T08:11:22;14.70;52.50
70807;DHT22;58882;52.170;5.386;2024-01-06T08:13:49;14.70;52.20
70807;DHT22;58882;52.170;5.386;2024-01-06T08:16:17;14.70;52.10
70807;DHT22;58882;52.170;5.386;2024-01-06T08:18:44;14.70;52.10
70807;DHT22;58882;52.170;5.386;2024-01-06T08:21:12;14.70;52.00
70807;DHT22;58882;52.170;5.386;2024-01-06T08:23:39;14.80;51.90
70807;DHT22;58882;52.170;5.386;2024-01-06T08:26:05;14.70;51.70
70807;DHT22;58882;52.170;5.386;2024-01-06T08:28:35;14.70;51.70
70807;DHT22;58882;52.170;5.386;2024-01-06T08:31:02;14.70;51.80
70807;DHT22;58882;52.170;5.386;2024-01-06T08:33:29;14.70;51.70
70807;DHT22;58882;52.170;5.386;2024-01-06T08:35:56;14.70;51.60
70807;DHT22;58882;52.170;5.386;2024-01-06T08:38:23;14.80;51.60
70807;DHT22;58882;52.170;5.386;2024-01-06T08:40:50;14.70;51.50
70807;DHT22;58882;52.170;5.386;2024-01-06T08:43:17;14.70;51.60
70807;DHT22;58882;52.170;5.386;2024-01-06T08:45:44;14.70;51.40
70807;DHT22;58882;52.170;5.386;2024-01-06T08:48:11;14.70;51.40
70807;DHT22;58882;52.170;5.386;2024-01-06T08:50:40;14.70;51.40
70807;DHT22;58882;52.170;5.386;2024-01-06T08:53:07;14.70;51.60
70807;DHT22;58882;52.170;5.386;2024-01-06T08:55:34;14.70;51.60
70807;DHT22;58882;52.170;5.386;2024-01-06T08:58:00;14.70;51.70
70807;DHT22;58882;52.170;5.386;2024-01-06T09:00:27;14.70;51.60
70807;DHT22;58882;52.170;5.386;2024-01-06T09:02:54;14.70;51.40
70807;DHT22;58882;52.170;5.386;2024-01-06T09:05:21;14.70;51.30
70807;DHT22;58882;52.170;5.386;2024-01-06T09:07:48;14.70;51.20
70807;DHT22;58882;52.170;5.386;2024-01-06T09:10:21;14.70;51.20
70807;DHT22;58882;52.170;5.386;2024-01-06T09:12:48;14.70;51.10
70807;DHT22;58882;52.170;5.386;2024-01-06T09:15:15;14.70;51.00
70807;DHT22;58882;52.170;5.386;2024-01-06T09:17:42;14.80;51.00
70807;DHT22;58882;52.170;5.386;2024-01-06T09:20:09;14.80;50.90
70807;DHT22;58882;52.170;5.386;2024-01-06T09:22:36;14.80;50.80
70807;DHT22;58882;52.170;5.386;2024-01-06T09:25:03;14.80;50.70
70807;DHT22;58882;52.170;5.386;2024-01-06T09:27:30;14.90;51.10
70807;DHT22;58882;52.170;5.386;2024-01-06T09:29:57;15.00;51.10
70807;DHT22;58882;52.170;5.386;2024-01-06T09:32:23;15.10;50.70
70807;DHT22;58882;52.170;5.386;2024-01-06T09:34:50;15.20;50.50
70807;DHT22;58882;52.170;5.386;2024-01-06T09:37:18;15.30;50.30
70807;DHT22;58882;52.170;5.386;2024-01-06T09:39:45;15.30;50.10
70807;DHT22;58882;52.170;5.386;2024-01-06T09:42:12;15.40;50.90
70807;DHT22;58882;52.170;5.386;2024-01-06T09:44:39;15.50;49.60
70807;DHT22;58882;52.170;5.386;2024-01-06T09:47:06;15.50;49.40
70807;DHT22;58882;52.170;5.386;2024-01-06T09:49:34;15.60;49.20
70807;DHT22;58882;52.170;5.386;2024-01-06T09:52:13;15.60;49.00
70807;DHT22;58882;52.170;5.386;2024-01-06T09:54:50;15.70;49.10
70807;DHT22;58882;52.170;5.386;2024-01-06T09:57:18;15.70;48.90
70807;DHT22;58882;52.170;5.386;2024-01-06T09:59:44;15.80;48.70
70807;DHT22;58882;52.170;5.386;2024-01-06T10:02:14;15.80;48.50
70807;DHT22;58882;52.170;5.386;2024-01-06T10:04:45;15.80;48.40
70807;DHT22;58882;52.170;5.386;2024-01-06T10:07:12;15.80;48.40
70807;DHT22;58882;52.170;5.386;2024-01-06T10:09:41;15.90;48.30
70807;DHT22;58882;52.170;5.386;2024-01-06T10:12:09;15.90;48.20
70807;DHT22;58882;52.170;5.386;2024-01-06T10:14:37;15.90;48.20
70807;DHT22;58882;52.170;5.386;2024-01-06T10:17:06;15.90;48.30
70807;DHT22;58882;52.170;5.386;2024-01-06T10:19:35;15.90;49.00
70807;DHT22;58882;52.170;5.386;2024-01-06T10:22:03;16.00;48.20
70807;DHT22;58882;52.170;5.386;2024-01-06T10:24:30;16.00;48.10
70807;DHT22;58882;52.170;5.386;2024-01-06T10:26:58;16.00;48.00
70807;DHT22;58882;52.170;5.386;2024-01-06T10:29:25;16.00;47.70
70807;DHT22;58882;52.170;5.386;2024-01-06T10:31:54;16.00;47.80
70807;DHT22;58882;52.170;5.386;2024-01-06T10:34:23;16.00;47.70
70807;DHT22;58882;52.170;5.386;2024-01-06T10:36:50;16.00;47.70
70807;DHT22;58882;52.170;5.386;2024-01-06T10:39:20;16.00;48.70
70807;DHT22;58882;52.170;5.386;2024-01-06T10:41:49;16.00;48.50
70807;DHT22;58882;52.170;5.386;2024-01-06T10:44:16;16.00;47.50
70807;DHT22;58882;52.170;5.386;2024-01-06T10:46:44;16.10;47.50
70807;DHT22;58882;52.170;5.386;2024-01-06T10:49:11;16.10;47.40
70807;DHT22;58882;52.170;5.386;2024-01-06T10:51:39;16.10;47.40
70807;DHT22;58882;52.170;5.386;2024-01-06T10:54:07;16.10;47.20
70807;DHT22;58882;52.170;5.386;2024-01-06T10:56:38;16.10;47.20
70807;DHT22;58882;52.170;5.386;2024-01-06T10:59:05;16.00;47.10
70807;DHT22;58882;52.170;5.386;2024-01-06T11:01:35;16.00;47.10
70807;DHT22;58882;52.170;5.386;2024-01-06T11:04:03;16.10;47.20
70807;DHT22;58882;52.170;5.386;2024-01-06T11:06:33;16.10;47.20
70807;DHT22;58882;52.170;5.386;2024-01-06T11:09:17;16.10;47.20
70807;DHT22;58882;52.170;5.386;2024-01-06T11:11:45;16.10;47.10
70807;DHT22;58882;52.170;5.386;2024-01-06T11:14:24;16.10;47.00
70807;DHT22;58882;52.170;5.386;2024-01-06T11:16:52;16.10;47.00
70807;DHT22;58882;52.170;5.386;2024-01-06T11:24:54;16.10;46.80
70807;DHT22;58882;52.170;5.386;2024-01-06T11:27:25;16.10;46.60
70807;DHT22;58882;52.170;5.386;2024-01-06T11:29:57;16.10;46.70
70807;DHT22;58882;52.170;5.386;2024-01-06T11:32:33;16.10;46.70
70807;DHT22;58882;52.170;5.386;2024-01-06T11:37:51;16.10;46.50
70807;DHT22;58882;52.170;5.386;2024-01-06T11:42:56;16.00;46.60
70807;DHT22;58882;52.170;5.386;2024-01-06T11:45:25;16.10;46.70
70807;DHT22;58882;52.170;5.386;2024-01-06T11:47:55;16.10;46.60
70807;DHT22;58882;52.170;5.386;2024-01-06T11:50:26;16.10;46.40
70807;DHT22;58882;52.170;5.386;2024-01-06T11:52:54;16.10;46.40
70807;DHT22;58882;52.170;5.386;2024-01-06T11:55:21;16.10;46.40
70807;DHT22;58882;52.170;5.386;2024-01-06T11:57:48;16.10;46.40
70807;DHT22;58882;52.170;5.386;2024-01-06T12:00:17;16.00;46.30
70807;DHT22;58882;52.170;5.386;2024-01-06T12:02:44;16.00;46.20
70807;DHT22;58882;52.170;5.386;2024-01-06T12:05:16;16.10;46.30
70807;DHT22;58882;52.170;5.386;2024-01-06T12:10:22;16.10;46.50
70807;DHT22;58882;52.170;5.386;2024-01-06T12:15:23;16.10;46.80
70807;DHT22;58882;52.170;5.386;2024-01-06T12:17:50;16.10;46.90
70807;DHT22;58882;52.170;5.386;2024-01-06T12:20:17;16.10;47.20
70807;DHT22;58882;52.170;5.386;2024-01-06T12:22:44;16.10;47.30
70807;DHT22;58882;52.170;5.386;2024-01-06T12:25:11;16.10;47.10
70807;DHT22;58882;52.170;5.386;2024-01-06T12:27:47;16.10;47.00
70807;DHT22;58882;52.170;5.386;2024-01-06T12:30:16;16.10;46.80
70807;DHT22;58882;52.170;5.386;2024-01-06T12:32:47;16.10;46.80
70807;DHT22;58882;52.170;5.386;2024-01-06T12:35:16;16.10;46.80
70807;DHT22;58882;52.170;5.386;2024-01-06T12:37:44;16.10;46.70
70807;DHT22;58882;52.170;5.386;2024-01-06T12:40:12;16.10;46.70
70807;DHT22;58882;52.170;5.386;2024-01-06T12:42:40;16.10;46.50
70807;DHT22;58882;52.170;5.386;2024-01-06T12:45:07;16.10;46.50
70807;DHT22;58882;52.170;5.386;2024-01-06T12:47:34;16.10;46.40
70807;DHT22;58882;52.170;5.386;2024-01-06T12:50:02;16.10;46.50
70807;DHT22;58882;52.170;5.386;2024-01-06T12:52:31;16.10;46.50
70807;DHT22;58882;52.170;5.386;2024-01-06T12:54:57;16.10;46.40
70807;DHT22;58882;52.170;5.386;2024-01-06T12:57:24;16.00;46.20
70807;DHT22;58882;52.170;5.386;2024-01-06T12:59:52;16.10;46.30
70807;DHT22;58882;52.170;5.386;2024-01-06T13:02:18;16.00;46.30
70807;DHT22;58882;52.170;5.386;2024-01-06T13:04:47;16.10;46.30
70807;DHT22;58882;52.170;5.386;2024-01-06T13:07:14;16.10;46.30
70807;DHT22;58882;52.170;5.386;2024-01-06T13:09:41;16.00;46.20
70807;DHT22;58882;52.170;5.386;2024-01-06T13:12:08;16.00;46.20
70807;DHT22;58882;52.170;5.386;2024-01-06T13:14:35;16.10;46.20
70807;DHT22;58882;52.170;5.386;2024-01-06T13:17:02;16.00;46.00
70807;DHT22;58882;52.170;5.386;2024-01-06T13:19:29;16.00;46.20
70807;DHT22;58882;52.170;5.386;2024-01-06T13:21:56;16.10;46.00
70807;DHT22;58882;52.170;5.386;2024-01-06T13:24:23;16.10;46.00
70807;DHT22;58882;52.170;5.386;2024-01-06T13:26:50;16.10;45.90
70807;DHT22;58882;52.170;5.386;2024-01-06T13:29:17;16.10;45.90
70807;DHT22;58882;52.170;5.386;2024-01-06T13:31:45;16.10;45.90
70807;DHT22;58882;52.170;5.386;2024-01-06T13:34:12;16.10;45.80
70807;DHT22;58882;52.170;5.386;2024-01-06T13:36:39;16.10;45.90
70807;DHT22;58882;52.170;5.386;2024-01-06T13:39:07;16.00;45.70
70807;DHT22;58882;52.170;5.386;2024-01-06T13:41:34;16.00;45.80
70807;DHT22;58882;52.170;5.386;2024-01-06T13:44:01;16.10;45.90
70807;DHT22;58882;52.170;5.386;2024-01-06T13:46:28;16.10;45.70
70807;DHT22;58882;52.170;5.386;2024-01-06T13:48:54;16.00;45.60
70807;DHT22;58882;52.170;5.386;2024-01-06T13:51:21;16.00;45.60
70807;DHT22;58882;52.170;5.386;2024-01-06T13:53:49;16.00;45.60
70807;DHT22;58882;52.170;5.386;2024-01-06T13:56:16;16.00;45.60
70807;DHT22;58882;52.170;5.386;2024-01-06T13:58:44;16.00;45.60
70807;DHT22;58882;52.170;5.386;2024-01-06T14:01:10;16.00;45.50
70807;DHT22;58882;52.170;5.386;2024-01-06T14:03:38;16.00;45.50
70807;DHT22;58882;52.170;5.386;2024-01-06T14:06:05;16.00;45.60
70807;DHT22;58882;52.170;5.386;2024-01-06T14:08:34;16.00;45.50
70807;DHT22;58882;52.170;5.386;2024-01-06T14:11:00;16.00;45.40
70807;DHT22;58882;52.170;5.386;2024-01-06T14:13:27;16.00;45.50
70807;DHT22;58882;52.170;5.386;2024-01-06T14:15:57;16.00;45.50
70807;DHT22;58882;52.170;5.386;2024-01-06T14:18:24;16.00;45.50
70807;DHT22;58882;52.170;5.386;2024-01-06T14:20:51;16.00;45.50
70807;DHT22;58882;52.170;5.386;2024-01-06T14:23:18;15.90;45.40
70807;DHT22;58882;52.170;5.386;2024-01-06T14:25:47;15.90;45.30
70807;DHT22;58882;52.170;5.386;2024-01-06T14:28:13;16.00;45.40
70807;DHT22;58882;52.170;5.386;2024-01-06T14:30:40;15.90;45.40
70807;DHT22;58882;52.170;5.386;2024-01-06T14:33:07;15.90;45.20
70807;DHT22;58882;52.170;5.386;2024-01-06T14:35:34;15.90;45.40
70807;DHT22;58882;52.170;5.386;2024-01-06T14:38:01;15.90;45.60
70807;DHT22;58882;52.170;5.386;2024-01-06T14:40:28;15.90;45.70
70807;DHT22;58882;52.170;5.386;2024-01-06T14:42:55;15.90;45.80
70807;DHT22;58882;52.170;5.386;2024-01-06T14:45:24;16.00;46.00
70807;DHT22;58882;52.170;5.386;2024-01-06T14:47:50;16.00;45.90
70807;DHT22;58882;52.170;5.386;2024-01-06T14:50:18;16.00;45.70
70807;DHT22;58882;52.170;5.386;2024-01-06T14:52:45;15.90;45.60
70807;DHT22;58882;52.170;5.386;2024-01-06T14:55:12;15.90;45.50
70807;DHT22;58882;52.170;5.386;2024-01-06T14:57:39;15.90;45.60
70807;DHT22;58882;52.170;5.386;2024-01-06T15:00:07;15.80;45.60
70807;DHT22;58882;52.170;5.386;2024-01-06T15:02:38;15.90;45.60
70807;DHT22;58882;52.170;5.386;2024-01-06T15:05:05;15.90;45.60
70807;DHT22;58882;52.170;5.386;2024-01-06T15:07:33;15.90;45.60
70807;DHT22;58882;52.170;5.386;2024-01-06T15:10:00;15.80;45.50
70807;DHT22;58882;52.170;5.386;2024-01-06T15:12:30;15.80;45.50
70807;DHT22;58882;52.170;5.386;2024-01-06T15:14:57;15.80;46.40
70807;DHT22;58882;52.170;5.386;2024-01-06T15:17:27;15.80;45.40
70807;DHT22;58882;52.170;5.386;2024-01-06T15:19:54;15.80;45.30
70807;DHT22;58882;52.170;5.386;2024-01-06T15:22:21;15.80;45.30
70807;DHT22;58882;52.170;5.386;2024-01-06T15:24:49;15.80;45.30
70807;DHT22;58882;52.170;5.386;2024-01-06T15:27:24;15.80;45.40
70807;DHT22;58882;52.170;5.386;2024-01-06T15:29:51;15.80;45.40
70807;DHT22;58882;52.170;5.386;2024-01-06T15:32:18;15.80;45.40
70807;DHT22;58882;52.170;5.386;2024-01-06T15:34:45;15.80;45.30
70807;DHT22;58882;52.170;5.386;2024-01-06T15:37:12;15.70;45.20
70807;DHT22;58882;52.170;5.386;2024-01-06T15:39:39;15.70;45.20
70807;DHT22;58882;52.170;5.386;2024-01-06T15:42:06;15.70;45.20
70807;DHT22;58882;52.170;5.386;2024-01-06T15:44:32;15.70;45.20
70807;DHT22;58882;52.170;5.386;2024-01-06T15:47:00;15.70;45.10